Hechuan, China
Current Conditions -  °F | °C
As of 5:00 PM on Friday 19 Dec 2014 (Local Time) from ZUCK Reporting Station
Clear Clear  
Wind Chill: 52°   Ceiling: Unl
Heat Index: 52°   Visibility: 6mi
Dew Point: 34°   Wind: 9mph
Humidity: 50%   Direction: 50°NE
Pressure: 30.21"   Gusts: NA
Location:  30.12°N, 106.25°E
Report Text: ZUCK 190900Z 05004MPS CAVOK 11/01 Q1023 NOSIG
Loading
Personal Weather Stations






























Interactive Weather Map New forecast layout! Learn more

10-Day Weather Forecast

Advertisements
Track Severe Weather on mobile